Aquilla, Texas
Current Conditions -  °F | °C
As of 9:51 PM on Friday 24 Oct 2014 (Local Time) from KACT Reporting Station
Clear Clear  
Wind Chill: 21°   Ceiling: Unl
Heat Index: 21°   Visibility: 10mi
Dew Point: 16°   Wind: 7mph
Humidity: 71%   Direction: 160°SSE
Pressure: 30.11"   Gusts: NA
Location:  31.85°N, 97.22°W
Report Text: KACT 250251Z 16006KT 10SM CLR 21/16 A3011 RMK AO2 SLP191 T02110156 51013
Loading
Personal Weather Stations






























Interactive Weather Map
Tropical Storm Tracking
New forecast layout! Learn more

10-Day Weather Forecast

Advertisements
Track Severe Weather on mobile